CEFAS Endeavour — VQHF3 — position and weather

sailwx.info

Track history (hours):
 
Tides and Currents Weather Stations Pressure Air Temp Water Temp Dewpoint Dewpoint Depression Visibility Wind Speed Wind Dir Waves Ship Positions

Oceanographic research ship CEFAS Endeavour (UK)

Detailed information on ship capabilities available from University of Delaware's Ocean Information Center.

Last reported at 2014-Oct-30 13:32 UTC. Time now 2014-Oct-30 14:23 UTC.
Position N 52°28' E 001°45'.

Length 74 m; draft 5.5 m.

Type: Cargo ship. MMSI: 235005270.

Date/timePositionNaut miles runAvg speedWind from/ knotsBaromVisibWave heightAir tempDewpointWater temp
2014-Oct-30 13:32N 52°28' E 001°45'0 0.0
2014-Oct-30 12:26N 52°28' E 001°45'0 0.0
2014-Oct-30 11:14N 52°28' E 001°45'0 0.0
2014-Oct-30 04:29N 52°28' E 001°45'0 0.0
2014-Oct-30 03:29N 52°28' E 001°45'0 0.0
2014-Oct-30 02:32N 52°28' E 001°45'0 0.0
2014-Oct-30 01:32N 52°28' E 001°45'0 0.0
2014-Oct-30 00:32N 52°28' E 001°45'2 1.7
2014-Oct-29 23:34N 52°30' E 001°47'1 1.1
2014-Oct-29 22:33N 52°31' E 001°46'0 0.0
2014-Oct-29 21:33N 52°31' E 001°46'0 0.1
2014-Oct-29 20:33N 52°31' E 001°46'0 0.0
2014-Oct-29 19:33N 52°31' E 001°46'0 0.0
2014-Oct-29 18:33N 52°31' E 001°46'0 0.0
2014-Oct-29 17:33N 52°31' E 001°46'6 5.8
2014-Oct-29 16:33N 52°36' E 001°46'7 6.9
2014-Oct-29 15:33N 52°43' E 001°46'9 8.8
2014-Oct-29 14:33N 52°51' E 001°38'9 8.5
2014-Oct-29 13:33N 52°59' E 001°32'10 9.6
2014-Oct-29 12:33N 53°07' E 001°24'5 0.8
2014-Oct-29 05:31N 53°12' E 001°24'1313.4
2014-Oct-29 04:33N 53°00' E 001°31'1414.2
2014-Oct-29 03:34N 52°50' E 001°47'1212.3
2014-Oct-29 02:34N 52°39' E 001°57'1211.8
2014-Oct-29 01:34N 52°27' E 001°59'1510.4
2014-Oct-29 00:08N 52°13' E 002°02'610.2
2014-Oct-28 23:34N 52°07' E 002°03'9 8.9
2014-Oct-28 22:34N 51°58' E 002°06'1 0.8
2014-Oct-28 21:33N 51°59' E 002°05'0 0.1
2014-Oct-28 20:34N 51°59' E 002°05'1 1.1
2014-Oct-28 19:34N 52°00' E 002°05'2 2.1
2014-Oct-28 18:34N 52°02' E 002°06'1 1.1
2014-Oct-28 17:33N 52°03' E 002°06'0 0.4
2014-Oct-28 16:33N 52°03' E 002°06'4 3.8
2014-Oct-28 15:33N 51°59' E 002°05'0 0.3
2014-Oct-28 14:33N 51°59' E 002°05'4 4.4
2014-Oct-28 13:33N 51°55' E 002°04'10 9.8
2014-Oct-28 12:34N 51°48' E 001°52'1010.3
2014-Oct-28 11:34N 51°49' E 001°35'10 9.9
2014-Oct-28 10:33N 51°43' E 001°23'1010.5
2014-Oct-28 09:33N 51°35' E 001°11'7 6.6
2014-Oct-28 08:32N 51°32' E 001°02'0 0.2
2014-Oct-28 07:34N 51°32' E 001°02'3 3.5
2014-Oct-28 06:34N 51°30' E 000°57'6 5.6
2014-Oct-28 05:34N 51°30' E 001°06'8 8.4
2014-Oct-28 04:34N 51°29' E 001°19'8 7.8
2014-Oct-28 03:34N 51°26' E 001°31'9 9.4
2014-Oct-28 02:34N 51°17' E 001°36'9 9.4
2014-Oct-28 01:34N 51°08' E 001°31'1110.3
2014-Oct-28 00:32N 51°01' E 001°18'1111.1
2014-Oct-27 23:33N 50°55' E 001°04'1312.5
2014-Oct-27 22:33N 50°47' E 000°49'1413.6
2014-Oct-27 21:33N 50°41' E 000°30'1313.2
2014-Oct-27 20:33N 50°38' E 000°09'1313.0
2014-Oct-27 19:33N 50°36' W 000°11'1212.2
2014-Oct-27 18:33N 50°34' W 000°30'1211.6
2014-Oct-27 17:33N 50°32' W 000°48'1110.7
2014-Oct-27 16:33N 50°31' W 001°05'9 9.2
2014-Oct-27 15:33N 50°30' W 001°19'17 8.2
2014-Oct-27 13:27N 50°38' W 001°43'0 0.2
2014-Oct-27 12:33N 50°38' W 001°43'5 5.3
2014-Oct-27 11:33N 50°35' W 001°50'9 8.7
2014-Oct-27 10:33N 50°31' W 002°02'1111.0
2014-Oct-27 09:33N 50°34' W 002°19'15 6.7
2014-Oct-27 07:18N 50°26' W 002°38'1013.3
2014-Oct-27 06:33N 50°21' W 002°52'1312.9
2014-Oct-27 05:33N 50°16' W 003°11'1212.4
2014-Oct-27 04:33N 50°11' W 003°28'1111.0
2014-Oct-27 03:32N 50°06' W 003°44'  
2014-Oct-23 02:31N 51°07' W 006°38'5 4.9
2014-Oct-23 01:29N 51°07' W 006°46'7 1.2
2014-Oct-22 19:26N 51°08' W 006°35'6 6.1
2014-Oct-22 18:28N 51°02' W 006°36'0 0.4
2014-Oct-22 17:33N 51°03' W 006°36'0 0.3
2014-Oct-22 16:17N 51°02' W 006°36'0 0.4
2014-Oct-22 15:29N 51°02' W 006°36'  
Track history (hours):
 
Tides and Currents Weather Stations Pressure Air Temp Water Temp Dewpoint Dewpoint Depression Visibility Wind Speed Wind Dir Waves Ship Positions

Oceanographic research ship CEFAS Endeavour (UK)

Detailed information on ship capabilities available from University of Delaware's Ocean Information Center.

Last reported at 2014-Oct-30 13:32 UTC. Time now 2014-Oct-30 14:23 UTC.
Position N 52°28' E 001°45'.

Length 74 m; draft 5.5 m.

Type: Cargo ship. MMSI: 235005270.

Date/timePositionNaut miles runAvg speedWind from/ knotsBaromVisibWave heightAir tempDewpointWater temp
2014-Oct-30 13:32N 52°28' E 001°45'0 0.0
2014-Oct-30 12:26N 52°28' E 001°45'0 0.0
2014-Oct-30 11:14N 52°28' E 001°45'0 0.0
2014-Oct-30 04:29N 52°28' E 001°45'0 0.0
2014-Oct-30 03:29N 52°28' E 001°45'0 0.0
2014-Oct-30 02:32N 52°28' E 001°45'0 0.0
2014-Oct-30 01:32N 52°28' E 001°45'0 0.0
2014-Oct-30 00:32N 52°28' E 001°45'2 1.7
2014-Oct-29 23:34N 52°30' E 001°47'1 1.1
2014-Oct-29 22:33N 52°31' E 001°46'0 0.0
2014-Oct-29 21:33N 52°31' E 001°46'0 0.1
2014-Oct-29 20:33N 52°31' E 001°46'0 0.0
2014-Oct-29 19:33N 52°31' E 001°46'0 0.0
2014-Oct-29 18:33N 52°31' E 001°46'0 0.0
2014-Oct-29 17:33N 52°31' E 001°46'6 5.8
2014-Oct-29 16:33N 52°36' E 001°46'7 6.9
2014-Oct-29 15:33N 52°43' E 001°46'9 8.8
2014-Oct-29 14:33N 52°51' E 001°38'9 8.5
2014-Oct-29 13:33N 52°59' E 001°32'10 9.6
2014-Oct-29 12:33N 53°07' E 001°24'5 0.8
2014-Oct-29 05:31N 53°12' E 001°24'1313.4
2014-Oct-29 04:33N 53°00' E 001°31'1414.2
2014-Oct-29 03:34N 52°50' E 001°47'1212.3
2014-Oct-29 02:34N 52°39' E 001°57'1211.8
2014-Oct-29 01:34N 52°27' E 001°59'1510.4
2014-Oct-29 00:08N 52°13' E 002°02'610.2
2014-Oct-28 23:34N 52°07' E 002°03'9 8.9
2014-Oct-28 22:34N 51°58' E 002°06'1 0.8
2014-Oct-28 21:33N 51°59' E 002°05'0 0.1
2014-Oct-28 20:34N 51°59' E 002°05'1 1.1
2014-Oct-28 19:34N 52°00' E 002°05'2 2.1
2014-Oct-28 18:34N 52°02' E 002°06'1 1.1
2014-Oct-28 17:33N 52°03' E 002°06'0 0.4
2014-Oct-28 16:33N 52°03' E 002°06'4 3.8
2014-Oct-28 15:33N 51°59' E 002°05'0 0.3
2014-Oct-28 14:33N 51°59' E 002°05'4 4.4
2014-Oct-28 13:33N 51°55' E 002°04'10 9.8
2014-Oct-28 12:34N 51°48' E 001°52'1010.3
2014-Oct-28 11:34N 51°49' E 001°35'10 9.9
2014-Oct-28 10:33N 51°43' E 001°23'1010.5
2014-Oct-28 09:33N 51°35' E 001°11'7 6.6
2014-Oct-28 08:32N 51°32' E 001°02'0 0.2
2014-Oct-28 07:34N 51°32' E 001°02'3 3.5
2014-Oct-28 06:34N 51°30' E 000°57'6 5.6
2014-Oct-28 05:34N 51°30' E 001°06'8 8.4
2014-Oct-28 04:34N 51°29' E 001°19'8 7.8
2014-Oct-28 03:34N 51°26' E 001°31'9 9.4
2014-Oct-28 02:34N 51°17' E 001°36'9 9.4
2014-Oct-28 01:34N 51°08' E 001°31'1110.3
2014-Oct-28 00:32N 51°01' E 001°18'1111.1
2014-Oct-27 23:33N 50°55' E 001°04'1312.5
2014-Oct-27 22:33N 50°47' E 000°49'1413.6
2014-Oct-27 21:33N 50°41' E 000°30'1313.2
2014-Oct-27 20:33N 50°38' E 000°09'1313.0
2014-Oct-27 19:33N 50°36' W 000°11'1212.2
2014-Oct-27 18:33N 50°34' W 000°30'1211.6
2014-Oct-27 17:33N 50°32' W 000°48'1110.7
2014-Oct-27 16:33N 50°31' W 001°05'9 9.2
2014-Oct-27 15:33N 50°30' W 001°19'17 8.2
2014-Oct-27 13:27N 50°38' W 001°43'0 0.2
2014-Oct-27 12:33N 50°38' W 001°43'5 5.3
2014-Oct-27 11:33N 50°35' W 001°50'9 8.7
2014-Oct-27 10:33N 50°31' W 002°02'1111.0
2014-Oct-27 09:33N 50°34' W 002°19'15 6.7
2014-Oct-27 07:18N 50°26' W 002°38'1013.3
2014-Oct-27 06:33N 50°21' W 002°52'1312.9
2014-Oct-27 05:33N 50°16' W 003°11'1212.4
2014-Oct-27 04:33N 50°11' W 003°28'1111.0
2014-Oct-27 03:32N 50°06' W 003°44'  
2014-Oct-23 02:31N 51°07' W 006°38'5 4.9
2014-Oct-23 01:29N 51°07' W 006°46'7 1.2
2014-Oct-22 19:26N 51°08' W 006°35'6 6.1
2014-Oct-22 18:28N 51°02' W 006°36'0 0.4
2014-Oct-22 17:33N 51°03' W 006°36'0 0.3
2014-Oct-22 16:17N 51°02' W 006°36'0 0.4
2014-Oct-22 15:29N 51°02' W 006°36'  

Dump ship's entire track history